Euro Snow — VQGH9 — position and weather

sailwx.info

Track history (hours):
 
Tides and Currents Weather Stations Pressure Air Temp Water Temp Dewpoint Dewpoint Depression Visibility Wind Speed Wind Dir Waves Ship Positions

Euro Snow

Last reported at 2017-Oct-19 15:33 UTC. Time now 2017-Oct-20 14:45 UTC.
Position N 55°32' E 020°02'.

Length 133 m; draft 5.2 m.

Type: Cargo ship. MMSI: 235613000.

Date/timePositionNaut miles runAvg speedWind from/ knotsBaromVisibWave heightAir tempDewpointWater temp
2017-Oct-19 15:33N 55°32' E 020°02'211.8
2017-Oct-19 15:23N 55°32' E 019°59'511.9
2017-Oct-19 15:00N 55°30' E 019°52'611.8
2017-Oct-19 14:29N 55°28' E 019°42'611.8
2017-Oct-19 14:00N 55°25' E 019°33'611.8
2017-Oct-19 13:30N 55°23' E 019°23'611.7
2017-Oct-19 13:00N 55°20' E 019°14'611.7
2017-Oct-19 12:27N 55°18' E 019°03'2211.6
2017-Oct-19 10:34N 55°09' E 018°28'111.8
2017-Oct-19 10:28N 55°09' E 018°26'611.8
2017-Oct-19 09:58N 55°06' E 018°17'511.8
2017-Oct-19 09:30N 55°04' E 018°08'10010.5
2017-Oct-19 00:03N 54°40' E 015°20'010.5
2017-Oct-19 00:00N 54°40' E 015°19'510.5
2017-Oct-18 23:30N 54°40' E 015°10'510.4
2017-Oct-18 23:00N 54°39' E 015°02'510.4
2017-Oct-18 22:30N 54°38' E 014°53'510.4
2017-Oct-18 21:59N 54°37' E 014°43'26 9.7
2017-Oct-18 19:17N 54°42' E 013°59'1510.3
2017-Oct-18 17:52N 54°49' E 013°36'710.0
2017-Oct-18 17:11N 54°50' E 013°25'210.4
2017-Oct-18 16:58N 54°50' E 013°21'610.0
2017-Oct-18 16:24N 54°50' E 013°11'11 9.7
2017-Oct-18 15:17N 54°46' E 012°53'3 9.9
2017-Oct-18 15:00N 54°45' E 012°49'26 9.6
2017-Oct-18 12:18N 54°28' E 012°14'3 9.5
2017-Oct-18 12:00N 54°26' E 012°12'5 9.2
2017-Oct-18 11:30N 54°25' E 012°05'510.1
2017-Oct-18 11:00N 54°25' E 011°56'29 9.9
2017-Oct-18 08:04N 54°35' E 011°09'110.1
2017-Oct-18 07:58N 54°35' E 011°07'710.5
2017-Oct-18 07:18N 54°35' E 010°55'310.7
2017-Oct-18 07:00N 54°34' E 010°50'610.9
2017-Oct-18 06:29N 54°34' E 010°40'710.9
2017-Oct-18 05:49N 54°32' E 010°28'611.0
2017-Oct-18 05:16N 54°29' E 010°19'311.2
2017-Oct-18 04:59N 54°27' E 010°15'11 3.9
2017-Oct-18 02:08N 54°21' E 009°60'5 7.2
2017-Oct-18 01:24N 54°22' E 009°51'3 7.6
2017-Oct-18 01:00N 54°21' E 009°46'4 8.1
2017-Oct-18 00:30N 54°18' E 009°41'4 7.9
2017-Oct-18 00:00N 54°15' E 009°37'3 6.9
2017-Oct-17 23:30N 54°12' E 009°33'4 8.1
2017-Oct-17 23:00N 54°10' E 009°27'4 7.7
2017-Oct-17 22:30N 54°09' E 009°21'3 6.9
2017-Oct-17 22:00N 54°05' E 009°19'4 8.1
2017-Oct-17 21:30N 54°01' E 009°18'4 7.6
2017-Oct-17 21:00N 53°58' E 009°15'4 8.3
2017-Oct-17 20:30N 53°55' E 009°11'2 3.4
2017-Oct-17 20:01N 53°54' E 009°09'0 0.2
2017-Oct-17 19:30N 53°54' E 009°09'2 3.4
2017-Oct-17 19:01N 53°53' E 009°06'612.2
2017-Oct-17 18:30N 53°51' E 008°56'714.3
2017-Oct-17 18:00N 53°52' E 008°44'813.9
2017-Oct-17 17:28N 53°58' E 008°36'715.6
2017-Oct-17 16:59N 53°59' E 008°23'1810.9
2017-Oct-17 15:19N 53°52' E 007°55'515.1
2017-Oct-17 15:00N 53°51' E 008°03'816.6
2017-Oct-17 14:30N 53°45' E 008°13'917.6
2017-Oct-17 14:00N 53°39' E 008°25'5 9.3
2017-Oct-17 13:30N 53°36' E 008°31'0 0.0
2017-Oct-17 12:58N 53°36' E 008°31'0 0.0
2017-Oct-17 12:28N 53°36' E 008°31'0 0.1
2017-Oct-17 12:01N 53°36' E 008°31'0 0.1
2017-Oct-17 11:30N 53°36' E 008°31'0 0.0
2017-Oct-17 11:00N 53°36' E 008°31'0 0.0
2017-Oct-17 10:29N 53°36' E 008°31'0 0.1
2017-Oct-17 10:00N 53°36' E 008°31'0 0.1
2017-Oct-17 09:30N 53°36' E 008°31'0 0.0
2017-Oct-17 08:59N 53°36' E 008°31'0 0.0
2017-Oct-17 08:30N 53°36' E 008°31'0 0.0
2017-Oct-17 07:59N 53°36' E 008°31'0 0.0
2017-Oct-17 07:30N 53°36' E 008°31'0 0.0
2017-Oct-17 07:00N 53°36' E 008°31'0 0.0
2017-Oct-17 06:28N 53°36' E 008°31'0 0.0
2017-Oct-17 06:00N 53°36' E 008°31'0 0.0
2017-Oct-17 05:30N 53°36' E 008°31'0 0.0
2017-Oct-17 05:00N 53°36' E 008°31'0 0.0
2017-Oct-17 04:30N 53°36' E 008°31'0 0.0
2017-Oct-17 03:59N 53°36' E 008°31'0 0.0
2017-Oct-17 03:15N 53°36' E 008°31'0 0.2
2017-Oct-17 03:00N 53°36' E 008°31'0 0.1
2017-Oct-17 02:28N 53°36' E 008°31'0 0.0
2017-Oct-17 01:58N 53°36' E 008°31'0 0.0
2017-Oct-17 01:28N 53°36' E 008°31'0 0.0
2017-Oct-17 00:56N 53°36' E 008°31'0 0.0
2017-Oct-17 00:29N 53°36' E 008°31'0 0.0
2017-Oct-16 23:59N 53°36' E 008°31'0 0.0
2017-Oct-16 23:30N 53°36' E 008°31'0 0.0
2017-Oct-16 22:59N 53°36' E 008°31'0 0.0
2017-Oct-16 22:30N 53°36' E 008°31'0 0.0
2017-Oct-16 22:00N 53°36' E 008°31'0 0.0
2017-Oct-16 21:30N 53°36' E 008°31'0 0.2
2017-Oct-16 21:01N 53°36' E 008°31'4 8.7
2017-Oct-16 20:30N 53°39' E 008°25'816.2
2017-Oct-16 20:00N 53°44' E 008°14'815.9
2017-Oct-16 19:30N 53°50' E 008°05'713.9
2017-Oct-16 19:00N 53°52' E 007°54'713.2
2017-Oct-16 18:27N 53°54' E 007°42'613.0
2017-Oct-16 17:57N 53°59' E 007°36'11 9.2
2017-Oct-16 16:44N 54°09' E 007°27'2810.1
2017-Oct-16 13:59N 54°33' E 007°03'4 9.4
2017-Oct-16 13:30N 54°37' E 006°60'5 9.3
2017-Oct-16 13:00N 54°41' E 006°56'5 9.3
2017-Oct-16 12:30N 54°45' E 006°51'5 9.4
2017-Oct-16 11:59N 54°49' E 006°47'4 9.3
2017-Oct-16 11:30N 54°53' E 006°44'5 9.5
2017-Oct-16 11:00N 54°57' E 006°40'5 9.5
2017-Oct-16 10:30N 55°02' E 006°36'5 9.7
2017-Oct-16 10:00N 55°06' E 006°35'5 9.8
2017-Oct-16 09:30N 55°11' E 006°33'5 9.9
2017-Oct-16 09:00N 55°16' E 006°31'510.1
2017-Oct-16 08:30N 55°21' E 006°30'510.2
2017-Oct-16 07:59N 55°26' E 006°28'510.4
2017-Oct-16 07:30N 55°31' E 006°26'510.5
2017-Oct-16 07:00N 55°36' E 006°24'510.5
2017-Oct-16 06:29N 55°42' E 006°22'510.6
2017-Oct-16 06:00N 55°47' E 006°20'712.2
2017-Oct-16 05:27N 55°53' E 006°17'612.3
2017-Oct-16 05:00N 55°59' E 006°15'14212.7
2017-Oct-15 17:46N 58°17' E 005°17'412.6
2017-Oct-15 17:29N 58°20' E 005°14'612.5
2017-Oct-15 17:00N 58°26' E 005°13'713.5
2017-Oct-15 16:30N 58°33' E 005°15'713.5
2017-Oct-15 16:00N 58°40' E 005°17'713.0
2017-Oct-15 15:30N 58°46' E 005°18'611.9
2017-Oct-15 15:00N 58°50' E 005°27'7 6.5
2017-Oct-15 13:59N 58°55' E 005°35'0 0.0
2017-Oct-15 13:29N 58°55' E 005°35'0 0.0
2017-Oct-15 12:59N 58°55' E 005°35'0 0.0
2017-Oct-15 12:29N 58°55' E 005°35'0 0.0
2017-Oct-15 11:59N 58°55' E 005°35'0 0.0
2017-Oct-15 11:29N 58°55' E 005°35'0 0.0
2017-Oct-15 10:59N 58°55' E 005°35'0 0.0
2017-Oct-15 10:29N 58°55' E 005°35'0 0.0
2017-Oct-15 09:59N 58°55' E 005°35'0 0.0
2017-Oct-15 09:29N 58°55' E 005°35'0 0.0
2017-Oct-15 08:59N 58°55' E 005°35'0 0.0
2017-Oct-15 08:29N 58°55' E 005°35'0 0.0
2017-Oct-15 07:59N 58°55' E 005°35'0 0.0
2017-Oct-15 07:29N 58°55' E 005°35'0 0.0
2017-Oct-15 06:59N 58°55' E 005°35'0 0.0
2017-Oct-15 06:29N 58°55' E 005°35'0 0.0
2017-Oct-15 05:59N 58°55' E 005°35'0 0.0
2017-Oct-15 05:29N 58°55' E 005°35'0 0.0
2017-Oct-15 04:59N 58°55' E 005°35'0 0.0
2017-Oct-15 04:29N 58°55' E 005°35'0 0.0
2017-Oct-15 03:59N 58°55' E 005°35'0 0.0
2017-Oct-15 03:29N 58°55' E 005°35'0 0.0
2017-Oct-15 02:59N 58°55' E 005°35'0 0.0
2017-Oct-15 02:29N 58°55' E 005°35'0 0.0
2017-Oct-15 01:59N 58°55' E 005°35'0 0.0
2017-Oct-15 01:29N 58°55' E 005°35'0 0.0
2017-Oct-15 00:59N 58°55' E 005°35'0 0.0
2017-Oct-15 00:29N 58°55' E 005°35'0 0.9
2017-Oct-15 00:00N 58°56' E 005°35'3 6.5
2017-Oct-14 23:30N 58°53' E 005°32'4 7.4
2017-Oct-14 23:00N 58°51' E 005°26'510.6
2017-Oct-14 22:30N 58°52' E 005°16'5 9.2
2017-Oct-14 22:01N 58°53' E 005°08'5 9.7
2017-Oct-14 21:30N 58°56' E 004°60'510.4
2017-Oct-14 21:00N 58°58' E 004°51'191 9.3
2017-Oct-14 00:25N 62°09' E 004°28'4 9.1
2017-Oct-14 00:00N 62°11' E 004°34'4 8.5
2017-Oct-13 23:30N 62°14' E 004°41'4 9.0
2017-Oct-13 23:00N 62°17' E 004°49'5 9.3
2017-Oct-13 22:30N 62°20' E 004°56'5 9.9
2017-Oct-13 22:00N 62°23' E 005°05'510.1
2017-Oct-13 21:31N 62°26' E 005°13'510.0
2017-Oct-13 21:00N 62°28' E 005°23'5 9.4
2017-Oct-13 20:30N 62°30' E 005°32'5 9.2
2017-Oct-13 20:00N 62°31' E 005°42'510.5
2017-Oct-13 19:30N 62°28' E 005°51'510.2
2017-Oct-13 19:00N 62°27' E 006°02'5 9.1
2017-Oct-13 18:30N 62°29' E 006°11'0 0.9
2017-Oct-13 17:59N 62°29' E 006°12'0 0.0
2017-Oct-13 17:29N 62°29' E 006°12'0 0.0
2017-Oct-13 16:59N 62°29' E 006°12'0 0.0
2017-Oct-13 16:29N 62°29' E 006°12'0 0.0
2017-Oct-13 15:59N 62°29' E 006°12'0 0.0
2017-Oct-13 15:29N 62°29' E 006°12'0 0.0
2017-Oct-13 14:59N 62°29' E 006°12'0 0.0
2017-Oct-13 14:29N 62°29' E 006°12'0 0.0
2017-Oct-13 13:59N 62°29' E 006°12'0 0.0
2017-Oct-13 13:29N 62°29' E 006°12'0 0.0
2017-Oct-13 12:59N 62°29' E 006°12'0 0.0
2017-Oct-13 12:29N 62°29' E 006°12'0 0.0
2017-Oct-13 11:59N 62°29' E 006°12'0 0.0
2017-Oct-13 11:29N 62°29' E 006°12'0 0.0
2017-Oct-13 10:59N 62°29' E 006°12'0 0.0
2017-Oct-13 10:29N 62°29' E 006°12'0 0.0
2017-Oct-13 09:56N 62°29' E 006°12'0 0.0
2017-Oct-13 09:26N 62°29' E 006°12'0 0.0
2017-Oct-13 08:59N 62°29' E 006°12'0 0.0
2017-Oct-13 08:29N 62°29' E 006°12'0 0.0
2017-Oct-13 07:59N 62°29' E 006°12'0 0.0
2017-Oct-13 07:29N 62°29' E 006°12'0 0.0
2017-Oct-13 06:59N 62°29' E 006°12'0 0.0
2017-Oct-13 06:29N 62°29' E 006°12'0 0.0
2017-Oct-13 05:56N 62°29' E 006°12'0 0.0
2017-Oct-13 05:29N 62°29' E 006°12'0 0.0
2017-Oct-13 04:59N 62°29' E 006°12'0 0.0
2017-Oct-13 04:29N 62°29' E 006°12'0 0.0
2017-Oct-13 03:56N 62°29' E 006°12'0 0.0
2017-Oct-13 03:29N 62°29' E 006°12'0 0.0
2017-Oct-13 02:59N 62°29' E 006°12'0 0.0
2017-Oct-13 02:29N 62°29' E 006°12'0 0.0
2017-Oct-13 01:59N 62°29' E 006°12'0 0.0
2017-Oct-13 01:29N 62°29' E 006°12'0 0.0
2017-Oct-13 00:59N 62°29' E 006°12'0 0.0
2017-Oct-13 00:29N 62°29' E 006°12'0 0.0
2017-Oct-12 23:59N 62°29' E 006°12'0 0.0
2017-Oct-12 23:29N 62°29' E 006°12'0 0.0
2017-Oct-12 22:59N 62°29' E 006°12'0 0.0
2017-Oct-12 22:29N 62°29' E 006°12'0 0.0
2017-Oct-12 21:56N 62°29' E 006°12'0 0.0
2017-Oct-12 21:29N 62°29' E 006°12'0 0.0
2017-Oct-12 20:59N 62°29' E 006°12'0 0.0
2017-Oct-12 20:29N 62°29' E 006°12'0 0.0
2017-Oct-12 19:59N 62°29' E 006°12'0 0.0
2017-Oct-12 19:29N 62°29' E 006°12'0 0.0
2017-Oct-12 18:59N 62°29' E 006°12'0 0.0
2017-Oct-12 18:29N 62°29' E 006°12'0 0.0
2017-Oct-12 17:59N 62°29' E 006°12'0 0.0
2017-Oct-12 17:29N 62°29' E 006°12'0 0.0
2017-Oct-12 16:59N 62°29' E 006°12'0 0.0
2017-Oct-12 16:24N 62°29' E 006°12'0 0.0
2017-Oct-12 15:59N 62°29' E 006°12'1 1.8
2017-Oct-12 15:30N 62°29' E 006°10'612.3
2017-Oct-12 14:59N 62°27' E 005°57'5 9.7
2017-Oct-12 14:30N 62°29' E 005°47'510.7
2017-Oct-12 14:00N 62°30' E 005°36'611.0
2017-Oct-12 13:30N 62°29' E 005°25'714.4
2017-Oct-12 13:00N 62°24' E 005°14'714.5
2017-Oct-12 12:30N 62°19' E 005°01'714.4
2017-Oct-12 12:00N 62°15' E 004°50'714.2
2017-Oct-12 11:30N 62°10' E 004°38'54314.9
2017-Oct-10 23:05N 53°07' E 004°27'716.4
2017-Oct-10 22:39N 53°01' E 004°21'416.4
2017-Oct-10 22:24N 52°57' E 004°18'2816.5
2017-Oct-10 20:41N 52°35' E 003°50'1517.1
2017-Oct-10 19:50N 52°23' E 003°34'2917.5
2017-Oct-10 18:10N 51°55' E 003°22'317.9
2017-Oct-10 17:59N 51°52' E 003°21'816.5
2017-Oct-10 17:30N 51°45' E 003°17'816.2
2017-Oct-10 17:00N 51°37' E 003°22'816.7
2017-Oct-10 16:30N 51°30' E 003°29'612.2
2017-Oct-10 16:01N 51°26' E 003°36'611.1
2017-Oct-10 15:30N 51°23' E 003°44'612.8
2017-Oct-10 15:00N 51°21' E 003°54'8 8.2
2017-Oct-10 14:01N 51°22' E 004°07'510.3
2017-Oct-10 13:30N 51°21' E 004°15'1 1.4
2017-Oct-10 13:01N 51°21' E 004°16'0 0.0
2017-Oct-10 12:31N 51°21' E 004°16'0 0.0
2017-Oct-10 12:01N 51°21' E 004°16'0 0.0
2017-Oct-10 11:31N 51°21' E 004°16'0 0.0
2017-Oct-10 11:01N 51°21' E 004°16'0 0.0
2017-Oct-10 10:31N 51°21' E 004°16'0 0.0
2017-Oct-10 10:00N 51°21' E 004°16'0 0.0
2017-Oct-10 09:31N 51°21' E 004°16'0 0.0
2017-Oct-10 09:00N 51°21' E 004°16'0 0.0
2017-Oct-10 08:29N 51°21' E 004°16'0 0.0
2017-Oct-10 08:01N 51°21' E 004°16'0 0.0
2017-Oct-10 07:30N 51°21' E 004°16'0 0.0
2017-Oct-10 07:00N 51°21' E 004°16'0 0.0
2017-Oct-10 06:28N 51°21' E 004°16'0 0.0
2017-Oct-10 05:58N 51°21' E 004°16'0 0.0
2017-Oct-10 05:28N 51°21' E 004°16'0 0.0
2017-Oct-10 05:01N 51°21' E 004°16'0 0.0
2017-Oct-10 04:30N 51°21' E 004°16'0 0.0
2017-Oct-10 04:00N 51°21' E 004°16'0 0.0
2017-Oct-10 03:31N 51°21' E 004°16'0 0.0
2017-Oct-10 03:00N 51°21' E 004°16'0 0.0
2017-Oct-10 02:30N 51°21' E 004°16'0 0.0
2017-Oct-10 02:01N 51°21' E 004°16'0 0.0
2017-Oct-10 01:31N 51°21' E 004°16'0 0.4
2017-Oct-10 01:00N 51°21' E 004°15'4 8.0
2017-Oct-10 00:31N 51°24' E 004°11'611.1
2017-Oct-10 00:01N 51°25' E 004°02'611.8
2017-Oct-09 23:30N 51°21' E 003°54'714.3
2017-Oct-09 23:00N 51°23' E 003°43'611.6
2017-Oct-09 22:30N 51°26' E 003°35'510.0
2017-Oct-09 22:00N 51°29' E 003°29'611.6
2017-Oct-09 21:31N 51°34' E 003°24'714.7
2017-Oct-09 21:00N 51°41' E 003°18'5 9.4
2017-Oct-09 20:27N 51°46' E 003°19'2 1.7
2017-Oct-09 19:15N 51°47' E 003°21'0 0.0
2017-Oct-09 19:00N 51°47' E 003°21'0 0.0
2017-Oct-09 18:30N 51°47' E 003°21'0 0.0
2017-Oct-09 15:57N 51°47' E 003°21'  
Track history (hours):
 
Tides and Currents Weather Stations Pressure Air Temp Water Temp Dewpoint Dewpoint Depression Visibility Wind Speed Wind Dir Waves Ship Positions

Euro Snow

Last reported at 2017-Oct-19 15:33 UTC. Time now 2017-Oct-20 14:45 UTC.
Position N 55°32' E 020°02'.

Length 133 m; draft 5.2 m.

Type: Cargo ship. MMSI: 235613000.

Date/timePositionNaut miles runAvg speedWind from/ knotsBaromVisibWave heightAir tempDewpointWater temp
2017-Oct-19 15:33N 55°32' E 020°02'211.8
2017-Oct-19 15:23N 55°32' E 019°59'511.9
2017-Oct-19 15:00N 55°30' E 019°52'611.8
2017-Oct-19 14:29N 55°28' E 019°42'611.8
2017-Oct-19 14:00N 55°25' E 019°33'611.8
2017-Oct-19 13:30N 55°23' E 019°23'611.7
2017-Oct-19 13:00N 55°20' E 019°14'611.7
2017-Oct-19 12:27N 55°18' E 019°03'2211.6
2017-Oct-19 10:34N 55°09' E 018°28'111.8
2017-Oct-19 10:28N 55°09' E 018°26'611.8
2017-Oct-19 09:58N 55°06' E 018°17'511.8
2017-Oct-19 09:30N 55°04' E 018°08'10010.5
2017-Oct-19 00:03N 54°40' E 015°20'010.5
2017-Oct-19 00:00N 54°40' E 015°19'510.5
2017-Oct-18 23:30N 54°40' E 015°10'510.4
2017-Oct-18 23:00N 54°39' E 015°02'510.4
2017-Oct-18 22:30N 54°38' E 014°53'510.4
2017-Oct-18 21:59N 54°37' E 014°43'26 9.7
2017-Oct-18 19:17N 54°42' E 013°59'1510.3
2017-Oct-18 17:52N 54°49' E 013°36'710.0
2017-Oct-18 17:11N 54°50' E 013°25'210.4
2017-Oct-18 16:58N 54°50' E 013°21'610.0
2017-Oct-18 16:24N 54°50' E 013°11'11 9.7
2017-Oct-18 15:17N 54°46' E 012°53'3 9.9
2017-Oct-18 15:00N 54°45' E 012°49'26 9.6
2017-Oct-18 12:18N 54°28' E 012°14'3 9.5
2017-Oct-18 12:00N 54°26' E 012°12'5 9.2
2017-Oct-18 11:30N 54°25' E 012°05'510.1
2017-Oct-18 11:00N 54°25' E 011°56'29 9.9
2017-Oct-18 08:04N 54°35' E 011°09'110.1
2017-Oct-18 07:58N 54°35' E 011°07'710.5
2017-Oct-18 07:18N 54°35' E 010°55'310.7
2017-Oct-18 07:00N 54°34' E 010°50'610.9
2017-Oct-18 06:29N 54°34' E 010°40'710.9
2017-Oct-18 05:49N 54°32' E 010°28'611.0
2017-Oct-18 05:16N 54°29' E 010°19'311.2
2017-Oct-18 04:59N 54°27' E 010°15'11 3.9
2017-Oct-18 02:08N 54°21' E 009°60'5 7.2
2017-Oct-18 01:24N 54°22' E 009°51'3 7.6
2017-Oct-18 01:00N 54°21' E 009°46'4 8.1
2017-Oct-18 00:30N 54°18' E 009°41'4 7.9
2017-Oct-18 00:00N 54°15' E 009°37'3 6.9
2017-Oct-17 23:30N 54°12' E 009°33'4 8.1
2017-Oct-17 23:00N 54°10' E 009°27'4 7.7
2017-Oct-17 22:30N 54°09' E 009°21'3 6.9
2017-Oct-17 22:00N 54°05' E 009°19'4 8.1
2017-Oct-17 21:30N 54°01' E 009°18'4 7.6
2017-Oct-17 21:00N 53°58' E 009°15'4 8.3
2017-Oct-17 20:30N 53°55' E 009°11'2 3.4
2017-Oct-17 20:01N 53°54' E 009°09'0 0.2
2017-Oct-17 19:30N 53°54' E 009°09'2 3.4
2017-Oct-17 19:01N 53°53' E 009°06'612.2
2017-Oct-17 18:30N 53°51' E 008°56'714.3
2017-Oct-17 18:00N 53°52' E 008°44'813.9
2017-Oct-17 17:28N 53°58' E 008°36'715.6
2017-Oct-17 16:59N 53°59' E 008°23'1810.9
2017-Oct-17 15:19N 53°52' E 007°55'515.1
2017-Oct-17 15:00N 53°51' E 008°03'816.6
2017-Oct-17 14:30N 53°45' E 008°13'917.6
2017-Oct-17 14:00N 53°39' E 008°25'5 9.3
2017-Oct-17 13:30N 53°36' E 008°31'0 0.0
2017-Oct-17 12:58N 53°36' E 008°31'0 0.0
2017-Oct-17 12:28N 53°36' E 008°31'0 0.1
2017-Oct-17 12:01N 53°36' E 008°31'0 0.1
2017-Oct-17 11:30N 53°36' E 008°31'0 0.0
2017-Oct-17 11:00N 53°36' E 008°31'0 0.0
2017-Oct-17 10:29N 53°36' E 008°31'0 0.1
2017-Oct-17 10:00N 53°36' E 008°31'0 0.1
2017-Oct-17 09:30N 53°36' E 008°31'0 0.0
2017-Oct-17 08:59N 53°36' E 008°31'0 0.0
2017-Oct-17 08:30N 53°36' E 008°31'0 0.0
2017-Oct-17 07:59N 53°36' E 008°31'0 0.0
2017-Oct-17 07:30N 53°36' E 008°31'0 0.0
2017-Oct-17 07:00N 53°36' E 008°31'0 0.0
2017-Oct-17 06:28N 53°36' E 008°31'0 0.0
2017-Oct-17 06:00N 53°36' E 008°31'0 0.0
2017-Oct-17 05:30N 53°36' E 008°31'0 0.0
2017-Oct-17 05:00N 53°36' E 008°31'0 0.0
2017-Oct-17 04:30N 53°36' E 008°31'0 0.0
2017-Oct-17 03:59N 53°36' E 008°31'0 0.0
2017-Oct-17 03:15N 53°36' E 008°31'0 0.2
2017-Oct-17 03:00N 53°36' E 008°31'0 0.1
2017-Oct-17 02:28N 53°36' E 008°31'0 0.0
2017-Oct-17 01:58N 53°36' E 008°31'0 0.0
2017-Oct-17 01:28N 53°36' E 008°31'0 0.0
2017-Oct-17 00:56N 53°36' E 008°31'0 0.0
2017-Oct-17 00:29N 53°36' E 008°31'0 0.0
2017-Oct-16 23:59N 53°36' E 008°31'0 0.0
2017-Oct-16 23:30N 53°36' E 008°31'0 0.0
2017-Oct-16 22:59N 53°36' E 008°31'0 0.0
2017-Oct-16 22:30N 53°36' E 008°31'0 0.0
2017-Oct-16 22:00N 53°36' E 008°31'0 0.0
2017-Oct-16 21:30N 53°36' E 008°31'0 0.2
2017-Oct-16 21:01N 53°36' E 008°31'4 8.7
2017-Oct-16 20:30N 53°39' E 008°25'816.2
2017-Oct-16 20:00N 53°44' E 008°14'815.9
2017-Oct-16 19:30N 53°50' E 008°05'713.9
2017-Oct-16 19:00N 53°52' E 007°54'713.2
2017-Oct-16 18:27N 53°54' E 007°42'613.0
2017-Oct-16 17:57N 53°59' E 007°36'11 9.2
2017-Oct-16 16:44N 54°09' E 007°27'2810.1
2017-Oct-16 13:59N 54°33' E 007°03'4 9.4
2017-Oct-16 13:30N 54°37' E 006°60'5 9.3
2017-Oct-16 13:00N 54°41' E 006°56'5 9.3
2017-Oct-16 12:30N 54°45' E 006°51'5 9.4
2017-Oct-16 11:59N 54°49' E 006°47'4 9.3
2017-Oct-16 11:30N 54°53' E 006°44'5 9.5
2017-Oct-16 11:00N 54°57' E 006°40'5 9.5
2017-Oct-16 10:30N 55°02' E 006°36'5 9.7
2017-Oct-16 10:00N 55°06' E 006°35'5 9.8
2017-Oct-16 09:30N 55°11' E 006°33'5 9.9
2017-Oct-16 09:00N 55°16' E 006°31'510.1
2017-Oct-16 08:30N 55°21' E 006°30'510.2
2017-Oct-16 07:59N 55°26' E 006°28'510.4
2017-Oct-16 07:30N 55°31' E 006°26'510.5
2017-Oct-16 07:00N 55°36' E 006°24'510.5
2017-Oct-16 06:29N 55°42' E 006°22'510.6
2017-Oct-16 06:00N 55°47' E 006°20'712.2
2017-Oct-16 05:27N 55°53' E 006°17'612.3
2017-Oct-16 05:00N 55°59' E 006°15'14212.7
2017-Oct-15 17:46N 58°17' E 005°17'412.6
2017-Oct-15 17:29N 58°20' E 005°14'612.5
2017-Oct-15 17:00N 58°26' E 005°13'713.5
2017-Oct-15 16:30N 58°33' E 005°15'713.5
2017-Oct-15 16:00N 58°40' E 005°17'713.0
2017-Oct-15 15:30N 58°46' E 005°18'611.9
2017-Oct-15 15:00N 58°50' E 005°27'7 6.5
2017-Oct-15 13:59N 58°55' E 005°35'0 0.0
2017-Oct-15 13:29N 58°55' E 005°35'0 0.0
2017-Oct-15 12:59N 58°55' E 005°35'0 0.0
2017-Oct-15 12:29N 58°55' E 005°35'0 0.0
2017-Oct-15 11:59N 58°55' E 005°35'0 0.0
2017-Oct-15 11:29N 58°55' E 005°35'0 0.0
2017-Oct-15 10:59N 58°55' E 005°35'0 0.0
2017-Oct-15 10:29N 58°55' E 005°35'0 0.0
2017-Oct-15 09:59N 58°55' E 005°35'0 0.0
2017-Oct-15 09:29N 58°55' E 005°35'0 0.0
2017-Oct-15 08:59N 58°55' E 005°35'0 0.0
2017-Oct-15 08:29N 58°55' E 005°35'0 0.0
2017-Oct-15 07:59N 58°55' E 005°35'0 0.0
2017-Oct-15 07:29N 58°55' E 005°35'0 0.0
2017-Oct-15 06:59N 58°55' E 005°35'0 0.0
2017-Oct-15 06:29N 58°55' E 005°35'0 0.0
2017-Oct-15 05:59N 58°55' E 005°35'0 0.0
2017-Oct-15 05:29N 58°55' E 005°35'0 0.0
2017-Oct-15 04:59N 58°55' E 005°35'0 0.0
2017-Oct-15 04:29N 58°55' E 005°35'0 0.0
2017-Oct-15 03:59N 58°55' E 005°35'0 0.0
2017-Oct-15 03:29N 58°55' E 005°35'0 0.0
2017-Oct-15 02:59N 58°55' E 005°35'0 0.0
2017-Oct-15 02:29N 58°55' E 005°35'0 0.0
2017-Oct-15 01:59N 58°55' E 005°35'0 0.0
2017-Oct-15 01:29N 58°55' E 005°35'0 0.0
2017-Oct-15 00:59N 58°55' E 005°35'0 0.0
2017-Oct-15 00:29N 58°55' E 005°35'0 0.9
2017-Oct-15 00:00N 58°56' E 005°35'3 6.5
2017-Oct-14 23:30N 58°53' E 005°32'4 7.4
2017-Oct-14 23:00N 58°51' E 005°26'510.6
2017-Oct-14 22:30N 58°52' E 005°16'5 9.2
2017-Oct-14 22:01N 58°53' E 005°08'5 9.7
2017-Oct-14 21:30N 58°56' E 004°60'510.4
2017-Oct-14 21:00N 58°58' E 004°51'191 9.3
2017-Oct-14 00:25N 62°09' E 004°28'4 9.1
2017-Oct-14 00:00N 62°11' E 004°34'4 8.5
2017-Oct-13 23:30N 62°14' E 004°41'4 9.0
2017-Oct-13 23:00N 62°17' E 004°49'5 9.3
2017-Oct-13 22:30N 62°20' E 004°56'5 9.9
2017-Oct-13 22:00N 62°23' E 005°05'510.1
2017-Oct-13 21:31N 62°26' E 005°13'510.0
2017-Oct-13 21:00N 62°28' E 005°23'5 9.4
2017-Oct-13 20:30N 62°30' E 005°32'5 9.2
2017-Oct-13 20:00N 62°31' E 005°42'510.5
2017-Oct-13 19:30N 62°28' E 005°51'510.2
2017-Oct-13 19:00N 62°27' E 006°02'5 9.1
2017-Oct-13 18:30N 62°29' E 006°11'0 0.9
2017-Oct-13 17:59N 62°29' E 006°12'0 0.0
2017-Oct-13 17:29N 62°29' E 006°12'0 0.0
2017-Oct-13 16:59N 62°29' E 006°12'0 0.0
2017-Oct-13 16:29N 62°29' E 006°12'0 0.0
2017-Oct-13 15:59N 62°29' E 006°12'0 0.0
2017-Oct-13 15:29N 62°29' E 006°12'0 0.0
2017-Oct-13 14:59N 62°29' E 006°12'0 0.0
2017-Oct-13 14:29N 62°29' E 006°12'0 0.0
2017-Oct-13 13:59N 62°29' E 006°12'0 0.0
2017-Oct-13 13:29N 62°29' E 006°12'0 0.0
2017-Oct-13 12:59N 62°29' E 006°12'0 0.0
2017-Oct-13 12:29N 62°29' E 006°12'0 0.0
2017-Oct-13 11:59N 62°29' E 006°12'0 0.0
2017-Oct-13 11:29N 62°29' E 006°12'0 0.0
2017-Oct-13 10:59N 62°29' E 006°12'0 0.0
2017-Oct-13 10:29N 62°29' E 006°12'0 0.0
2017-Oct-13 09:56N 62°29' E 006°12'0 0.0
2017-Oct-13 09:26N 62°29' E 006°12'0 0.0
2017-Oct-13 08:59N 62°29' E 006°12'0 0.0
2017-Oct-13 08:29N 62°29' E 006°12'0 0.0
2017-Oct-13 07:59N 62°29' E 006°12'0 0.0
2017-Oct-13 07:29N 62°29' E 006°12'0 0.0
2017-Oct-13 06:59N 62°29' E 006°12'0 0.0
2017-Oct-13 06:29N 62°29' E 006°12'0 0.0
2017-Oct-13 05:56N 62°29' E 006°12'0 0.0
2017-Oct-13 05:29N 62°29' E 006°12'0 0.0
2017-Oct-13 04:59N 62°29' E 006°12'0 0.0
2017-Oct-13 04:29N 62°29' E 006°12'0 0.0
2017-Oct-13 03:56N 62°29' E 006°12'0 0.0
2017-Oct-13 03:29N 62°29' E 006°12'0 0.0
2017-Oct-13 02:59N 62°29' E 006°12'0 0.0
2017-Oct-13 02:29N 62°29' E 006°12'0 0.0
2017-Oct-13 01:59N 62°29' E 006°12'0 0.0
2017-Oct-13 01:29N 62°29' E 006°12'0 0.0
2017-Oct-13 00:59N 62°29' E 006°12'0 0.0
2017-Oct-13 00:29N 62°29' E 006°12'0 0.0
2017-Oct-12 23:59N 62°29' E 006°12'0 0.0
2017-Oct-12 23:29N 62°29' E 006°12'0 0.0
2017-Oct-12 22:59N 62°29' E 006°12'0 0.0
2017-Oct-12 22:29N 62°29' E 006°12'0 0.0
2017-Oct-12 21:56N 62°29' E 006°12'0 0.0
2017-Oct-12 21:29N 62°29' E 006°12'0 0.0
2017-Oct-12 20:59N 62°29' E 006°12'0 0.0
2017-Oct-12 20:29N 62°29' E 006°12'0 0.0
2017-Oct-12 19:59N 62°29' E 006°12'0 0.0
2017-Oct-12 19:29N 62°29' E 006°12'0 0.0
2017-Oct-12 18:59N 62°29' E 006°12'0 0.0
2017-Oct-12 18:29N 62°29' E 006°12'0 0.0
2017-Oct-12 17:59N 62°29' E 006°12'0 0.0
2017-Oct-12 17:29N 62°29' E 006°12'0 0.0
2017-Oct-12 16:59N 62°29' E 006°12'0 0.0
2017-Oct-12 16:24N 62°29' E 006°12'0 0.0
2017-Oct-12 15:59N 62°29' E 006°12'1 1.8
2017-Oct-12 15:30N 62°29' E 006°10'612.3
2017-Oct-12 14:59N 62°27' E 005°57'5 9.7
2017-Oct-12 14:30N 62°29' E 005°47'510.7
2017-Oct-12 14:00N 62°30' E 005°36'611.0
2017-Oct-12 13:30N 62°29' E 005°25'714.4
2017-Oct-12 13:00N 62°24' E 005°14'714.5
2017-Oct-12 12:30N 62°19' E 005°01'714.4
2017-Oct-12 12:00N 62°15' E 004°50'714.2
2017-Oct-12 11:30N 62°10' E 004°38'54314.9
2017-Oct-10 23:05N 53°07' E 004°27'716.4
2017-Oct-10 22:39N 53°01' E 004°21'416.4
2017-Oct-10 22:24N 52°57' E 004°18'2816.5
2017-Oct-10 20:41N 52°35' E 003°50'1517.1
2017-Oct-10 19:50N 52°23' E 003°34'2917.5
2017-Oct-10 18:10N 51°55' E 003°22'317.9
2017-Oct-10 17:59N 51°52' E 003°21'816.5
2017-Oct-10 17:30N 51°45' E 003°17'816.2
2017-Oct-10 17:00N 51°37' E 003°22'816.7
2017-Oct-10 16:30N 51°30' E 003°29'612.2
2017-Oct-10 16:01N 51°26' E 003°36'611.1
2017-Oct-10 15:30N 51°23' E 003°44'612.8
2017-Oct-10 15:00N 51°21' E 003°54'8 8.2
2017-Oct-10 14:01N 51°22' E 004°07'510.3
2017-Oct-10 13:30N 51°21' E 004°15'1 1.4
2017-Oct-10 13:01N 51°21' E 004°16'0 0.0
2017-Oct-10 12:31N 51°21' E 004°16'0 0.0
2017-Oct-10 12:01N 51°21' E 004°16'0 0.0
2017-Oct-10 11:31N 51°21' E 004°16'0 0.0
2017-Oct-10 11:01N 51°21' E 004°16'0 0.0
2017-Oct-10 10:31N 51°21' E 004°16'0 0.0
2017-Oct-10 10:00N 51°21' E 004°16'0 0.0
2017-Oct-10 09:31N 51°21' E 004°16'0 0.0
2017-Oct-10 09:00N 51°21' E 004°16'0 0.0
2017-Oct-10 08:29N 51°21' E 004°16'0 0.0
2017-Oct-10 08:01N 51°21' E 004°16'0 0.0
2017-Oct-10 07:30N 51°21' E 004°16'0 0.0
2017-Oct-10 07:00N 51°21' E 004°16'0 0.0
2017-Oct-10 06:28N 51°21' E 004°16'0 0.0
2017-Oct-10 05:58N 51°21' E 004°16'0 0.0
2017-Oct-10 05:28N 51°21' E 004°16'0 0.0
2017-Oct-10 05:01N 51°21' E 004°16'0 0.0
2017-Oct-10 04:30N 51°21' E 004°16'0 0.0
2017-Oct-10 04:00N 51°21' E 004°16'0 0.0
2017-Oct-10 03:31N 51°21' E 004°16'0 0.0
2017-Oct-10 03:00N 51°21' E 004°16'0 0.0
2017-Oct-10 02:30N 51°21' E 004°16'0 0.0
2017-Oct-10 02:01N 51°21' E 004°16'0 0.0
2017-Oct-10 01:31N 51°21' E 004°16'0 0.4
2017-Oct-10 01:00N 51°21' E 004°15'4 8.0
2017-Oct-10 00:31N 51°24' E 004°11'611.1
2017-Oct-10 00:01N 51°25' E 004°02'611.8
2017-Oct-09 23:30N 51°21' E 003°54'714.3
2017-Oct-09 23:00N 51°23' E 003°43'611.6
2017-Oct-09 22:30N 51°26' E 003°35'510.0
2017-Oct-09 22:00N 51°29' E 003°29'611.6
2017-Oct-09 21:31N 51°34' E 003°24'714.7
2017-Oct-09 21:00N 51°41' E 003°18'5 9.4
2017-Oct-09 20:27N 51°46' E 003°19'2 1.7
2017-Oct-09 19:15N 51°47' E 003°21'0 0.0
2017-Oct-09 19:00N 51°47' E 003°21'0 0.0
2017-Oct-09 18:30N 51°47' E 003°21'0 0.0
2017-Oct-09 15:57N 51°47' E 003°21'  

Dump ship's entire track history